OISA  Abadeh  Airport

Abadeh, Iran

Add Bookmark
ICAO OISA
Type Airport
Status Operational
Latitude
31° 10' 0" N
31.166668
Longitude
52° 40' 0" E
52.666668
Local (DST + 5) UTC (GMT + 4)
May 23, 2015 08:52 May 23, 2015 16:22
Sunrise-Sunset Local UTC
Begin Civil Twilight 05:30 01:00
Sunrise 05:57 01:27
Sunset 07:54 15:24
End Civil Twilight 08:21 15:51
VFR
VFR
MVFR
MVFR
IFR
VFR
LIFR
VFR
Unknown
Unavailable

Current Weather

METAR Observed VFR
OISA 230455Z 00000KT CAVOK 23/M02 Q1023 Sat, May 23, 2015 @ 04:55 UTC
(11 Hours, 27 Minutes ago)
Visual Flight Rules
Wind Visibility Conditions
Calm 10 km or more
  • No significant weather
Temperatures Readings Precipitation
Current Temp
23°C
73°F
Dewpoint
-2°C
28°F
Humidity 19%
Altimeter 30.21" Hg
Sea Level Pressure 1,023 mb
Field Elevation
2,004 m
6,575 ft
None Recorded
-
-

CheckWX.com is intended as a tool to help pilots better visualize weather data. It is not intended as a substitute for an official weather briefing obtained from a Flight Service Station. CheckWX.com does not meet the FAA requirements for an official pre-flight weather briefing. Therefore, it's important that pilots still call and obtain an official FSS pre-flight weather briefing.

© 2007-2015 CheckWX.com
16:22:25 UTC